sensor_id;sensor_type;location;lat;lon;timestamp;P1;durP1;ratioP1;P2;durP2;ratioP2
13061;SDS011;6597;52.218;9.882;2023-02-01T00:01:50;6.60;;;1.70;;
13061;SDS011;6597;52.218;9.882;2023-02-01T00:04:17;11.47;;;1.90;;
13061;SDS011;6597;52.218;9.882;2023-02-01T00:06:43;7.43;;;1.93;;
13061;SDS011;6597;52.218;9.882;2023-02-01T00:09:10;6.37;;;2.47;;
13061;SDS011;6597;52.218;9.882;2023-02-01T00:11:36;6.77;;;1.80;;
13061;SDS011;6597;52.218;9.882;2023-02-01T00:14:04;16.20;;;2.17;;
13061;SDS011;6597;52.218;9.882;2023-02-01T00:16:31;12.77;;;2.33;;
13061;SDS011;6597;52.218;9.882;2023-02-01T00:18:58;10.73;;;2.17;;
13061;SDS011;6597;52.218;9.882;2023-02-01T00:21:26;12.53;;;1.97;;
13061;SDS011;6597;52.218;9.882;2023-02-01T00:23:55;14.33;;;1.93;;
13061;SDS011;6597;52.218;9.882;2023-02-01T00:26:23;5.83;;;1.57;;
13061;SDS011;6597;52.218;9.882;2023-02-01T00:28:54;10.60;;;2.17;;
13061;SDS011;6597;52.218;9.882;2023-02-01T00:31:22;10.20;;;2.20;;
13061;SDS011;6597;52.218;9.882;2023-02-01T00:33:48;10.47;;;1.97;;
13061;SDS011;6597;52.218;9.882;2023-02-01T00:36:15;6.83;;;1.63;;
13061;SDS011;6597;52.218;9.882;2023-02-01T00:38:42;11.13;;;1.97;;
13061;SDS011;6597;52.218;9.882;2023-02-01T00:41:11;13.87;;;2.53;;
13061;SDS011;6597;52.218;9.882;2023-02-01T00:43:38;19.03;;;2.50;;
13061;SDS011;6597;52.218;9.882;2023-02-01T00:46:06;4.37;;;1.30;;
13061;SDS011;6597;52.218;9.882;2023-02-01T00:48:34;10.27;;;2.37;;
13061;SDS011;6597;52.218;9.882;2023-02-01T00:51:01;15.47;;;2.03;;
13061;SDS011;6597;52.218;9.882;2023-02-01T00:53:28;10.27;;;2.40;;
13061;SDS011;6597;52.218;9.882;2023-02-01T00:55:55;8.40;;;1.90;;
13061;SDS011;6597;52.218;9.882;2023-02-01T00:58:22;16.53;;;2.67;;
13061;SDS011;6597;52.218;9.882;2023-02-01T01:00:49;12.13;;;2.17;;
13061;SDS011;6597;52.218;9.882;2023-02-01T01:03:15;15.40;;;2.57;;
13061;SDS011;6597;52.218;9.882;2023-02-01T01:05:46;9.33;;;2.10;;
13061;SDS011;6597;52.218;9.882;2023-02-01T01:08:14;15.77;;;3.07;;
13061;SDS011;6597;52.218;9.882;2023-02-01T01:10:41;11.60;;;1.83;;
13061;SDS011;6597;52.218;9.882;2023-02-01T01:13:09;9.10;;;1.77;;
13061;SDS011;6597;52.218;9.882;2023-02-01T01:15:38;9.20;;;2.10;;
13061;SDS011;6597;52.218;9.882;2023-02-01T01:18:06;15.53;;;2.33;;
13061;SDS011;6597;52.218;9.882;2023-02-01T01:20:33;3.83;;;1.50;;
13061;SDS011;6597;52.218;9.882;2023-02-01T01:23:03;6.93;;;2.13;;
13061;SDS011;6597;52.218;9.882;2023-02-01T01:25:30;5.73;;;2.23;;
13061;SDS011;6597;52.218;9.882;2023-02-01T01:27:57;7.13;;;2.30;;
13061;SDS011;6597;52.218;9.882;2023-02-01T01:30:24;15.93;;;2.07;;
13061;SDS011;6597;52.218;9.882;2023-02-01T01:32:51;12.93;;;2.03;;
13061;SDS011;6597;52.218;9.882;2023-02-01T01:35:17;9.60;;;2.33;;
13061;SDS011;6597;52.218;9.882;2023-02-01T01:37:44;7.70;;;2.03;;
13061;SDS011;6597;52.218;9.882;2023-02-01T01:40:12;8.33;;;1.73;;
13061;SDS011;6597;52.218;9.882;2023-02-01T01:42:39;4.70;;;2.20;;
13061;SDS011;6597;52.218;9.882;2023-02-01T01:45:11;3.43;;;1.60;;
13061;SDS011;6597;52.218;9.882;2023-02-01T01:47:47;14.87;;;2.37;;
13061;SDS011;6597;52.218;9.882;2023-02-01T01:50:17;8.77;;;2.00;;
13061;SDS011;6597;52.218;9.882;2023-02-01T01:52:46;7.17;;;1.57;;
13061;SDS011;6597;52.218;9.882;2023-02-01T01:55:18;7.03;;;1.73;;
13061;SDS011;6597;52.218;9.882;2023-02-01T01:57:49;7.30;;;1.80;;
13061;SDS011;6597;52.218;9.882;2023-02-01T02:00:20;9.23;;;2.27;;
13061;SDS011;6597;52.218;9.882;2023-02-01T02:02:52;5.70;;;1.70;;
13061;SDS011;6597;52.218;9.882;2023-02-01T02:05:23;12.20;;;1.70;;
13061;SDS011;6597;52.218;9.882;2023-02-01T02:07:51;5.83;;;2.03;;
13061;SDS011;6597;52.218;9.882;2023-02-01T02:10:20;7.43;;;2.07;;
13061;SDS011;6597;52.218;9.882;2023-02-01T02:13:07;8.00;;;2.73;;
13061;SDS011;6597;52.218;9.882;2023-02-01T02:15:35;7.53;;;2.03;;
13061;SDS011;6597;52.218;9.882;2023-02-01T02:18:09;10.60;;;1.97;;
13061;SDS011;6597;52.218;9.882;2023-02-01T02:20:47;7.93;;;2.30;;
13061;SDS011;6597;52.218;9.882;2023-02-01T02:26:56;9.43;;;1.80;;
13061;SDS011;6597;52.218;9.882;2023-02-01T02:29:34;11.37;;;1.70;;
13061;SDS011;6597;52.218;9.882;2023-02-01T02:32:23;4.17;;;2.00;;
13061;SDS011;6597;52.218;9.882;2023-02-01T02:35:16;13.47;;;2.40;;
13061;SDS011;6597;52.218;9.882;2023-02-01T02:37:52;10.87;;;1.63;;
13061;SDS011;6597;52.218;9.882;2023-02-01T02:40:28;9.20;;;2.60;;
13061;SDS011;6597;52.218;9.882;2023-02-01T02:43:01;7.43;;;1.40;;
13061;SDS011;6597;52.218;9.882;2023-02-01T02:45:53;9.37;;;2.33;;
13061;SDS011;6597;52.218;9.882;2023-02-01T02:48:50;11.27;;;2.43;;
13061;SDS011;6597;52.218;9.882;2023-02-01T02:51:23;4.00;;;1.57;;
13061;SDS011;6597;52.218;9.882;2023-02-01T02:54:13;6.00;;;2.60;;
13061;SDS011;6597;52.218;9.882;2023-02-01T02:57:02;16.20;;;2.00;;
13061;SDS011;6597;52.218;9.882;2023-02-01T02:59:50;7.77;;;1.70;;
13061;SDS011;6597;52.218;9.882;2023-02-01T03:02:36;14.87;;;1.93;;
13061;SDS011;6597;52.218;9.882;2023-02-01T03:05:21;7.87;;;2.27;;
13061;SDS011;6597;52.218;9.882;2023-02-01T03:07:53;14.97;;;2.20;;
13061;SDS011;6597;52.218;9.882;2023-02-01T03:10:30;8.03;;;2.10;;
13061;SDS011;6597;52.218;9.882;2023-02-01T03:13:06;16.17;;;2.27;;
13061;SDS011;6597;52.218;9.882;2023-02-01T03:15:36;3.87;;;1.67;;
13061;SDS011;6597;52.218;9.882;2023-02-01T03:18:10;6.80;;;1.63;;
13061;SDS011;6597;52.218;9.882;2023-02-01T03:20:42;10.10;;;2.03;;
13061;SDS011;6597;52.218;9.882;2023-02-01T03:23:14;6.77;;;1.67;;
13061;SDS011;6597;52.218;9.882;2023-02-01T03:25:45;5.07;;;2.03;;
13061;SDS011;6597;52.218;9.882;2023-02-01T03:28:14;13.97;;;2.40;;
13061;SDS011;6597;52.218;9.882;2023-02-01T03:30:44;10.07;;;1.93;;
13061;SDS011;6597;52.218;9.882;2023-02-01T03:33:12;5.50;;;1.90;;
13061;SDS011;6597;52.218;9.882;2023-02-01T03:35:50;10.33;;;1.87;;
13061;SDS011;6597;52.218;9.882;2023-02-01T03:38:25;8.80;;;2.10;;
13061;SDS011;6597;52.218;9.882;2023-02-01T03:40:58;8.73;;;1.90;;
13061;SDS011;6597;52.218;9.882;2023-02-01T03:43:30;9.73;;;2.30;;
13061;SDS011;6597;52.218;9.882;2023-02-01T03:46:05;4.30;;;1.70;;
13061;SDS011;6597;52.218;9.882;2023-02-01T03:48:38;10.73;;;2.70;;
13061;SDS011;6597;52.218;9.882;2023-02-01T03:51:06;10.63;;;2.17;;
13061;SDS011;6597;52.218;9.882;2023-02-01T03:53:35;7.87;;;1.83;;
13061;SDS011;6597;52.218;9.882;2023-02-01T03:56:05;11.93;;;2.13;;
13061;SDS011;6597;52.218;9.882;2023-02-01T03:58:33;10.27;;;2.33;;
13061;SDS011;6597;52.218;9.882;2023-02-01T04:01:00;6.90;;;1.83;;
13061;SDS011;6597;52.218;9.882;2023-02-01T04:03:30;5.90;;;2.40;;
13061;SDS011;6597;52.218;9.882;2023-02-01T04:05:57;4.73;;;2.17;;
13061;SDS011;6597;52.218;9.882;2023-02-01T04:08:26;8.60;;;1.97;;
13061;SDS011;6597;52.218;9.882;2023-02-01T04:10:54;7.10;;;1.87;;
13061;SDS011;6597;52.218;9.882;2023-02-01T04:13:21;3.97;;;1.67;;
13061;SDS011;6597;52.218;9.882;2023-02-01T04:15:47;7.73;;;2.60;;
13061;SDS011;6597;52.218;9.882;2023-02-01T04:18:15;5.97;;;2.27;;
13061;SDS011;6597;52.218;9.882;2023-02-01T04:20:42;14.33;;;2.47;;
13061;SDS011;6597;52.218;9.882;2023-02-01T04:23:09;9.17;;;1.93;;
13061;SDS011;6597;52.218;9.882;2023-02-01T04:25:36;9.17;;;2.60;;
13061;SDS011;6597;52.218;9.882;2023-02-01T04:28:04;7.07;;;2.10;;
13061;SDS011;6597;52.218;9.882;2023-02-01T04:30:31;6.43;;;2.00;;
13061;SDS011;6597;52.218;9.882;2023-02-01T04:32:58;8.73;;;2.17;;
13061;SDS011;6597;52.218;9.882;2023-02-01T04:35:25;8.40;;;2.23;;
13061;SDS011;6597;52.218;9.882;2023-02-01T04:37:51;9.33;;;2.37;;
13061;SDS011;6597;52.218;9.882;2023-02-01T04:40:18;11.13;;;3.50;;
13061;SDS011;6597;52.218;9.882;2023-02-01T04:42:44;13.37;;;2.20;;
13061;SDS011;6597;52.218;9.882;2023-02-01T04:45:12;6.37;;;2.20;;
13061;SDS011;6597;52.218;9.882;2023-02-01T04:47:39;11.70;;;2.17;;
13061;SDS011;6597;52.218;9.882;2023-02-01T04:50:05;13.07;;;2.67;;
13061;SDS011;6597;52.218;9.882;2023-02-01T04:52:35;19.40;;;3.03;;
13061;SDS011;6597;52.218;9.882;2023-02-01T04:55:02;8.53;;;2.23;;
13061;SDS011;6597;52.218;9.882;2023-02-01T04:57:29;9.97;;;2.30;;
13061;SDS011;6597;52.218;9.882;2023-02-01T04:59:56;6.67;;;1.90;;
13061;SDS011;6597;52.218;9.882;2023-02-01T05:02:24;6.17;;;2.27;;
13061;SDS011;6597;52.218;9.882;2023-02-01T05:04:50;6.97;;;2.30;;
13061;SDS011;6597;52.218;9.882;2023-02-01T05:07:17;10.93;;;2.33;;
13061;SDS011;6597;52.218;9.882;2023-02-01T05:09:43;16.80;;;2.40;;
13061;SDS011;6597;52.218;9.882;2023-02-01T05:12:10;8.83;;;2.57;;
13061;SDS011;6597;52.218;9.882;2023-02-01T05:15:00;14.13;;;2.50;;
13061;SDS011;6597;52.218;9.882;2023-02-01T05:17:27;7.73;;;2.30;;
13061;SDS011;6597;52.218;9.882;2023-02-01T05:19:54;8.97;;;2.10;;
13061;SDS011;6597;52.218;9.882;2023-02-01T05:22:21;8.97;;;1.93;;
13061;SDS011;6597;52.218;9.882;2023-02-01T05:24:47;10.00;;;2.30;;
13061;SDS011;6597;52.218;9.882;2023-02-01T05:27:14;10.93;;;2.03;;
13061;SDS011;6597;52.218;9.882;2023-02-01T05:29:40;6.73;;;2.43;;
13061;SDS011;6597;52.218;9.882;2023-02-01T05:32:08;10.37;;;2.00;;
13061;SDS011;6597;52.218;9.882;2023-02-01T05:34:37;13.67;;;2.80;;
13061;SDS011;6597;52.218;9.882;2023-02-01T05:37:03;14.83;;;2.70;;
13061;SDS011;6597;52.218;9.882;2023-02-01T05:39:30;9.57;;;2.13;;
13061;SDS011;6597;52.218;9.882;2023-02-01T05:41:56;6.30;;;1.90;;
13061;SDS011;6597;52.218;9.882;2023-02-01T05:44:23;11.07;;;1.97;;
13061;SDS011;6597;52.218;9.882;2023-02-01T05:46:50;7.73;;;1.70;;
13061;SDS011;6597;52.218;9.882;2023-02-01T05:49:17;13.73;;;2.70;;
13061;SDS011;6597;52.218;9.882;2023-02-01T05:51:45;8.37;;;1.77;;
13061;SDS011;6597;52.218;9.882;2023-02-01T05:54:11;9.43;;;2.20;;
13061;SDS011;6597;52.218;9.882;2023-02-01T05:56:38;7.93;;;2.13;;
13061;SDS011;6597;52.218;9.882;2023-02-01T05:59:05;7.73;;;1.73;;
13061;SDS011;6597;52.218;9.882;2023-02-01T06:01:32;4.27;;;2.07;;
13061;SDS011;6597;52.218;9.882;2023-02-01T06:03:59;8.77;;;2.07;;
13061;SDS011;6597;52.218;9.882;2023-02-01T06:06:26;9.57;;;2.50;;
13061;SDS011;6597;52.218;9.882;2023-02-01T06:08:54;7.40;;;2.43;;
13061;SDS011;6597;52.218;9.882;2023-02-01T06:11:20;4.47;;;2.03;;
13061;SDS011;6597;52.218;9.882;2023-02-01T06:13:47;6.53;;;2.10;;
13061;SDS011;6597;52.218;9.882;2023-02-01T06:16:13;23.93;;;1.87;;
13061;SDS011;6597;52.218;9.882;2023-02-01T06:18:40;10.13;;;2.10;;
13061;SDS011;6597;52.218;9.882;2023-02-01T06:21:08;7.80;;;1.73;;
13061;SDS011;6597;52.218;9.882;2023-02-01T06:23:35;13.50;;;2.07;;
13061;SDS011;6597;52.218;9.882;2023-02-01T06:26:03;6.63;;;1.53;;
13061;SDS011;6597;52.218;9.882;2023-02-01T06:28:32;4.73;;;2.07;;
13061;SDS011;6597;52.218;9.882;2023-02-01T06:31:02;2.57;;;1.63;;
13061;SDS011;6597;52.218;9.882;2023-02-01T06:33:32;6.73;;;1.63;;
13061;SDS011;6597;52.218;9.882;2023-02-01T06:35:59;9.30;;;1.80;;
13061;SDS011;6597;52.218;9.882;2023-02-01T06:38:26;6.93;;;1.70;;
13061;SDS011;6597;52.218;9.882;2023-02-01T06:40:53;6.93;;;1.53;;
13061;SDS011;6597;52.218;9.882;2023-02-01T06:43:23;3.40;;;1.50;;
13061;SDS011;6597;52.218;9.882;2023-02-01T06:45:51;5.87;;;1.47;;
13061;SDS011;6597;52.218;9.882;2023-02-01T06:48:18;2.77;;;1.50;;
13061;SDS011;6597;52.218;9.882;2023-02-01T06:50:45;9.13;;;2.57;;
13061;SDS011;6597;52.218;9.882;2023-02-01T06:53:12;1.70;;;1.20;;
13061;SDS011;6597;52.218;9.882;2023-02-01T06:55:39;5.93;;;2.10;;
13061;SDS011;6597;52.218;9.882;2023-02-01T06:58:05;4.33;;;1.50;;
13061;SDS011;6597;52.218;9.882;2023-02-01T07:00:33;6.00;;;1.53;;
13061;SDS011;6597;52.218;9.882;2023-02-01T07:03:00;9.20;;;1.70;;
13061;SDS011;6597;52.218;9.882;2023-02-01T07:05:27;6.50;;;1.77;;
13061;SDS011;6597;52.218;9.882;2023-02-01T07:07:54;6.83;;;1.53;;
13061;SDS011;6597;52.218;9.882;2023-02-01T07:10:20;9.53;;;2.23;;
13061;SDS011;6597;52.218;9.882;2023-02-01T07:12:47;6.30;;;1.60;;
13061;SDS011;6597;52.218;9.882;2023-02-01T07:15:14;10.17;;;2.23;;
13061;SDS011;6597;52.218;9.882;2023-02-01T07:17:42;4.17;;;1.63;;
13061;SDS011;6597;52.218;9.882;2023-02-01T07:20:10;4.17;;;1.90;;
13061;SDS011;6597;52.218;9.882;2023-02-01T07:22:37;5.90;;;1.80;;
13061;SDS011;6597;52.218;9.882;2023-02-01T07:25:04;3.43;;;1.63;;
13061;SDS011;6597;52.218;9.882;2023-02-01T07:27:33;3.53;;;1.73;;
13061;SDS011;6597;52.218;9.882;2023-02-01T07:29:59;3.07;;;1.73;;
13061;SDS011;6597;52.218;9.882;2023-02-01T07:32:27;3.60;;;1.67;;
13061;SDS011;6597;52.218;9.882;2023-02-01T07:34:55;8.93;;;2.00;;
13061;SDS011;6597;52.218;9.882;2023-02-01T07:37:21;9.07;;;2.07;;
13061;SDS011;6597;52.218;9.882;2023-02-01T07:39:49;8.67;;;2.47;;
13061;SDS011;6597;52.218;9.882;2023-02-01T07:42:17;12.87;;;2.17;;
13061;SDS011;6597;52.218;9.882;2023-02-01T07:44:43;8.97;;;2.13;;
13061;SDS011;6597;52.218;9.882;2023-02-01T07:47:10;11.43;;;1.60;;
13061;SDS011;6597;52.218;9.882;2023-02-01T07:49:37;9.47;;;1.90;;
13061;SDS011;6597;52.218;9.882;2023-02-01T07:52:05;7.23;;;1.97;;
13061;SDS011;6597;52.218;9.882;2023-02-01T07:54:32;6.70;;;2.07;;
13061;SDS011;6597;52.218;9.882;2023-02-01T07:56:58;4.43;;;2.20;;
13061;SDS011;6597;52.218;9.882;2023-02-01T07:59:25;7.10;;;2.43;;
13061;SDS011;6597;52.218;9.882;2023-02-01T08:01:51;6.73;;;2.03;;
13061;SDS011;6597;52.218;9.882;2023-02-01T08:04:17;9.03;;;1.97;;
13061;SDS011;6597;52.218;9.882;2023-02-01T08:06:44;11.67;;;2.27;;
13061;SDS011;6597;52.218;9.882;2023-02-01T08:09:12;8.27;;;1.90;;
13061;SDS011;6597;52.218;9.882;2023-02-01T08:11:39;6.90;;;1.83;;
13061;SDS011;6597;52.218;9.882;2023-02-01T08:14:06;3.33;;;1.63;;
13061;SDS011;6597;52.218;9.882;2023-02-01T08:16:33;4.83;;;1.70;;
13061;SDS011;6597;52.218;9.882;2023-02-01T08:19:02;9.30;;;2.00;;
13061;SDS011;6597;52.218;9.882;2023-02-01T08:21:29;4.03;;;1.70;;
13061;SDS011;6597;52.218;9.882;2023-02-01T08:24:02;14.83;;;1.90;;
13061;SDS011;6597;52.218;9.882;2023-02-01T08:26:31;9.27;;;2.27;;
13061;SDS011;6597;52.218;9.882;2023-02-01T08:28:59;3.70;;;1.50;;
13061;SDS011;6597;52.218;9.882;2023-02-01T08:31:27;5.70;;;2.00;;
13061;SDS011;6597;52.218;9.882;2023-02-01T08:33:55;15.43;;;2.47;;
13061;SDS011;6597;52.218;9.882;2023-02-01T08:36:24;5.53;;;1.60;;
13061;SDS011;6597;52.218;9.882;2023-02-01T08:38:52;4.10;;;1.80;;
13061;SDS011;6597;52.218;9.882;2023-02-01T08:41:19;5.00;;;1.57;;
13061;SDS011;6597;52.218;9.882;2023-02-01T08:43:48;15.90;;;2.40;;
13061;SDS011;6597;52.218;9.882;2023-02-01T08:46:15;9.90;;;2.23;;
13061;SDS011;6597;52.218;9.882;2023-02-01T08:48:43;4.57;;;1.63;;
13061;SDS011;6597;52.218;9.882;2023-02-01T08:51:12;5.57;;;1.53;;
13061;SDS011;6597;52.218;9.882;2023-02-01T08:53:39;6.07;;;1.90;;
13061;SDS011;6597;52.218;9.882;2023-02-01T08:56:11;7.93;;;2.10;;
13061;SDS011;6597;52.218;9.882;2023-02-01T08:58:38;10.40;;;2.13;;
13061;SDS011;6597;52.218;9.882;2023-02-01T09:01:07;5.23;;;2.00;;
13061;SDS011;6597;52.218;9.882;2023-02-01T09:03:35;5.73;;;1.63;;
13061;SDS011;6597;52.218;9.882;2023-02-01T09:06:02;9.50;;;1.67;;
13061;SDS011;6597;52.218;9.882;2023-02-01T09:08:30;7.97;;;2.50;;
13061;SDS011;6597;52.218;9.882;2023-02-01T09:10:58;13.37;;;2.23;;
13061;SDS011;6597;52.218;9.882;2023-02-01T09:13:25;10.03;;;2.40;;
13061;SDS011;6597;52.218;9.882;2023-02-01T09:15:52;8.47;;;1.90;;
13061;SDS011;6597;52.218;9.882;2023-02-01T09:18:20;6.70;;;1.43;;
13061;SDS011;6597;52.218;9.882;2023-02-01T09:20:47;6.07;;;1.87;;
13061;SDS011;6597;52.218;9.882;2023-02-01T09:23:13;11.73;;;1.70;;
13061;SDS011;6597;52.218;9.882;2023-02-01T09:25:40;5.57;;;1.20;;
13061;SDS011;6597;52.218;9.882;2023-02-01T09:28:07;8.77;;;2.10;;
13061;SDS011;6597;52.218;9.882;2023-02-01T09:30:36;4.97;;;2.10;;
13061;SDS011;6597;52.218;9.882;2023-02-01T09:33:03;4.60;;;1.50;;
13061;SDS011;6597;52.218;9.882;2023-02-01T09:35:31;5.93;;;2.00;;
13061;SDS011;6597;52.218;9.882;2023-02-01T09:37:57;14.53;;;1.47;;
13061;SDS011;6597;52.218;9.882;2023-02-01T09:40:24;7.30;;;1.80;;
13061;SDS011;6597;52.218;9.882;2023-02-01T09:42:56;5.27;;;1.87;;
13061;SDS011;6597;52.218;9.882;2023-02-01T09:45:45;15.30;;;1.97;;
13061;SDS011;6597;52.218;9.882;2023-02-01T09:48:22;6.03;;;1.57;;
13061;SDS011;6597;52.218;9.882;2023-02-01T09:50:55;5.10;;;1.83;;
13061;SDS011;6597;52.218;9.882;2023-02-01T09:53:27;8.43;;;1.77;;
13061;SDS011;6597;52.218;9.882;2023-02-01T09:55:59;6.07;;;1.70;;
13061;SDS011;6597;52.218;9.882;2023-02-01T09:58:32;5.27;;;1.77;;
13061;SDS011;6597;52.218;9.882;2023-02-01T10:01:05;6.33;;;2.10;;
13061;SDS011;6597;52.218;9.882;2023-02-01T10:03:41;16.87;;;1.90;;
13061;SDS011;6597;52.218;9.882;2023-02-01T10:09:14;6.20;;;1.87;;
13061;SDS011;6597;52.218;9.882;2023-02-01T10:11:51;6.40;;;1.93;;
13061;SDS011;6597;52.218;9.882;2023-02-01T10:17:21;4.90;;;2.10;;
13061;SDS011;6597;52.218;9.882;2023-02-01T10:19:59;9.37;;;1.83;;
13061;SDS011;6597;52.218;9.882;2023-02-01T10:22:38;7.13;;;1.87;;
13061;SDS011;6597;52.218;9.882;2023-02-01T10:25:11;4.57;;;1.37;;
13061;SDS011;6597;52.218;9.882;2023-02-01T10:27:43;6.77;;;1.53;;
13061;SDS011;6597;52.218;9.882;2023-02-01T10:30:17;5.90;;;1.77;;
13061;SDS011;6597;52.218;9.882;2023-02-01T10:32:47;7.20;;;1.73;;
13061;SDS011;6597;52.218;9.882;2023-02-01T10:35:16;10.90;;;1.80;;
13061;SDS011;6597;52.218;9.882;2023-02-01T10:37:45;6.70;;;1.80;;
13061;SDS011;6597;52.218;9.882;2023-02-01T10:40:15;2.83;;;1.20;;
13061;SDS011;6597;52.218;9.882;2023-02-01T10:42:44;5.90;;;1.60;;
13061;SDS011;6597;52.218;9.882;2023-02-01T10:45:13;8.60;;;1.90;;
13061;SDS011;6597;52.218;9.882;2023-02-01T10:47:43;5.90;;;1.83;;
13061;SDS011;6597;52.218;9.882;2023-02-01T10:50:13;8.73;;;1.80;;
13061;SDS011;6597;52.218;9.882;2023-02-01T10:52:48;13.97;;;2.67;;
13061;SDS011;6597;52.218;9.882;2023-02-01T10:55:25;6.33;;;1.40;;
13061;SDS011;6597;52.218;9.882;2023-02-01T10:57:55;7.40;;;1.33;;
13061;SDS011;6597;52.218;9.882;2023-02-01T11:00:23;7.10;;;1.77;;
13061;SDS011;6597;52.218;9.882;2023-02-01T11:02:50;3.83;;;1.40;;
13061;SDS011;6597;52.218;9.882;2023-02-01T11:05:18;3.27;;;1.47;;
13061;SDS011;6597;52.218;9.882;2023-02-01T11:07:46;7.07;;;1.73;;
13061;SDS011;6597;52.218;9.882;2023-02-01T11:13:01;2.80;;;1.40;;
13061;SDS011;6597;52.218;9.882;2023-02-01T11:15:29;3.23;;;1.20;;
13061;SDS011;6597;52.218;9.882;2023-02-01T11:17:55;8.83;;;1.20;;
13061;SDS011;6597;52.218;9.882;2023-02-01T11:20:33;9.53;;;1.40;;
13061;SDS011;6597;52.218;9.882;2023-02-01T11:23:05;5.20;;;1.90;;
13061;SDS011;6597;52.218;9.882;2023-02-01T11:25:47;3.93;;;1.27;;
13061;SDS011;6597;52.218;9.882;2023-02-01T11:28:15;4.43;;;1.67;;
13061;SDS011;6597;52.218;9.882;2023-02-01T11:30:44;4.20;;;1.27;;
13061;SDS011;6597;52.218;9.882;2023-02-01T11:33:13;4.70;;;1.60;;
13061;SDS011;6597;52.218;9.882;2023-02-01T11:35:43;5.13;;;1.40;;
13061;SDS011;6597;52.218;9.882;2023-02-01T11:38:13;12.90;;;1.60;;
13061;SDS011;6597;52.218;9.882;2023-02-01T11:40:46;7.10;;;1.10;;
13061;SDS011;6597;52.218;9.882;2023-02-01T11:43:16;11.13;;;1.30;;
13061;SDS011;6597;52.218;9.882;2023-02-01T11:45:54;4.77;;;1.80;;
13061;SDS011;6597;52.218;9.882;2023-02-01T11:48:23;5.40;;;1.80;;
13061;SDS011;6597;52.218;9.882;2023-02-01T11:50:52;8.40;;;2.03;;
13061;SDS011;6597;52.218;9.882;2023-02-01T11:53:32;6.67;;;1.90;;
13061;SDS011;6597;52.218;9.882;2023-02-01T11:56:12;5.33;;;1.83;;
13061;SDS011;6597;52.218;9.882;2023-02-01T11:58:50;10.40;;;2.20;;
13061;SDS011;6597;52.218;9.882;2023-02-01T12:01:36;4.57;;;1.90;;
13061;SDS011;6597;52.218;9.882;2023-02-01T12:04:18;5.73;;;1.80;;
13061;SDS011;6597;52.218;9.882;2023-02-01T12:07:04;6.00;;;1.60;;
13061;SDS011;6597;52.218;9.882;2023-02-01T12:09:44;3.67;;;1.47;;
13061;SDS011;6597;52.218;9.882;2023-02-01T12:12:28;7.80;;;1.80;;
13061;SDS011;6597;52.218;9.882;2023-02-01T12:15:06;6.07;;;1.60;;
13061;SDS011;6597;52.218;9.882;2023-02-01T12:17:47;11.23;;;2.17;;
13061;SDS011;6597;52.218;9.882;2023-02-01T12:20:33;9.40;;;1.97;;
13061;SDS011;6597;52.218;9.882;2023-02-01T12:23:19;8.57;;;2.17;;
13061;SDS011;6597;52.218;9.882;2023-02-01T12:26:05;8.73;;;1.67;;
13061;SDS011;6597;52.218;9.882;2023-02-01T12:28:53;5.17;;;1.70;;
13061;SDS011;6597;52.218;9.882;2023-02-01T12:31:34;11.90;;;1.97;;
13061;SDS011;6597;52.218;9.882;2023-02-01T12:34:14;7.20;;;2.30;;
13061;SDS011;6597;52.218;9.882;2023-02-01T12:36:55;6.03;;;1.87;;
13061;SDS011;6597;52.218;9.882;2023-02-01T12:39:31;8.73;;;1.80;;
13061;SDS011;6597;52.218;9.882;2023-02-01T12:42:01;7.10;;;2.07;;
13061;SDS011;6597;52.218;9.882;2023-02-01T12:44:39;8.37;;;1.70;;
13061;SDS011;6597;52.218;9.882;2023-02-01T12:47:12;6.20;;;1.93;;
13061;SDS011;6597;52.218;9.882;2023-02-01T12:49:45;12.70;;;2.50;;
13061;SDS011;6597;52.218;9.882;2023-02-01T12:52:16;9.20;;;2.20;;
13061;SDS011;6597;52.218;9.882;2023-02-01T12:54:47;6.87;;;1.70;;
13061;SDS011;6597;52.218;9.882;2023-02-01T12:57:19;7.53;;;1.67;;
13061;SDS011;6597;52.218;9.882;2023-02-01T12:59:50;8.80;;;2.13;;
13061;SDS011;6597;52.218;9.882;2023-02-01T13:02:22;3.87;;;1.33;;
13061;SDS011;6597;52.218;9.882;2023-02-01T13:04:56;5.53;;;1.90;;
13061;SDS011;6597;52.218;9.882;2023-02-01T13:07:29;2.90;;;1.77;;
13061;SDS011;6597;52.218;9.882;2023-02-01T13:10:01;2.13;;;1.23;;
13061;SDS011;6597;52.218;9.882;2023-02-01T13:12:34;7.87;;;1.70;;
13061;SDS011;6597;52.218;9.882;2023-02-01T13:15:04;5.43;;;1.57;;
13061;SDS011;6597;52.218;9.882;2023-02-01T13:17:44;4.17;;;1.87;;
13061;SDS011;6597;52.218;9.882;2023-02-01T13:20:15;3.77;;;1.47;;
13061;SDS011;6597;52.218;9.882;2023-02-01T13:22:46;3.73;;;1.27;;
13061;SDS011;6597;52.218;9.882;2023-02-01T13:25:24;8.90;;;1.67;;
13061;SDS011;6597;52.218;9.882;2023-02-01T13:27:58;14.23;;;2.03;;
13061;SDS011;6597;52.218;9.882;2023-02-01T13:30:30;7.57;;;2.13;;
13061;SDS011;6597;52.218;9.882;2023-02-01T13:33:14;2.03;;;1.40;;
13061;SDS011;6597;52.218;9.882;2023-02-01T13:35:57;4.53;;;1.50;;
13061;SDS011;6597;52.218;9.882;2023-02-01T13:39:02;3.40;;;1.40;;
13061;SDS011;6597;52.218;9.882;2023-02-01T13:41:51;4.90;;;1.50;;
13061;SDS011;6597;52.218;9.882;2023-02-01T13:44:24;4.50;;;1.13;;
13061;SDS011;6597;52.218;9.882;2023-02-01T13:46:54;1.57;;;1.17;;
13061;SDS011;6597;52.218;9.882;2023-02-01T13:49:24;1.50;;;1.03;;
13061;SDS011;6597;52.218;9.882;2023-02-01T13:51:54;3.40;;;1.27;;
13061;SDS011;6597;52.218;9.882;2023-02-01T13:54:27;2.77;;;1.13;;
13061;SDS011;6597;52.218;9.882;2023-02-01T13:56:56;1.77;;;0.80;;
13061;SDS011;6597;52.218;9.882;2023-02-01T14:03:01;0.20;;;0.17;;
13061;SDS011;6597;52.218;9.882;2023-02-01T14:08:22;0.30;;;0.30;;
13061;SDS011;6597;52.218;9.882;2023-02-01T14:11:01;0.27;;;0.27;;
13061;SDS011;6597;52.218;9.882;2023-02-01T14:13:28;0.30;;;0.13;;
13061;SDS011;6597;52.218;9.882;2023-02-01T14:18:57;0.93;;;0.30;;
13061;SDS011;6597;52.218;9.882;2023-02-01T14:21:26;0.30;;;0.23;;
13061;SDS011;6597;52.218;9.882;2023-02-01T14:23:56;0.20;;;0.20;;
13061;SDS011;6597;52.218;9.882;2023-02-01T14:26:26;0.17;;;0.17;;
13061;SDS011;6597;52.218;9.882;2023-02-01T14:29:15;0.83;;;0.40;;
13061;SDS011;6597;52.218;9.882;2023-02-01T14:31:53;0.10;;;0.10;;
13061;SDS011;6597;52.218;9.882;2023-02-01T14:37:23;0.13;;;0.13;;
13061;SDS011;6597;52.218;9.882;2023-02-01T14:39:55;0.30;;;0.30;;
13061;SDS011;6597;52.218;9.882;2023-02-01T14:42:26;0.10;;;0.10;;
13061;SDS011;6597;52.218;9.882;2023-02-01T14:44:56;0.40;;;0.13;;
13061;SDS011;6597;52.218;9.882;2023-02-01T14:51:04;0.10;;;0.10;;
13061;SDS011;6597;52.218;9.882;2023-02-01T14:53:32;0.13;;;0.10;;
13061;SDS011;6597;52.218;9.882;2023-02-01T14:56:05;1.03;;;0.43;;
13061;SDS011;6597;52.218;9.882;2023-02-01T14:58:40;0.10;;;0.10;;
13061;SDS011;6597;52.218;9.882;2023-02-01T15:01:17;0.43;;;0.13;;
13061;SDS011;6597;52.218;9.882;2023-02-01T15:03:54;0.33;;;0.30;;
13061;SDS011;6597;52.218;9.882;2023-02-01T15:06:27;0.53;;;0.20;;
13061;SDS011;6597;52.218;9.882;2023-02-01T15:08:59;0.30;;;0.30;;
13061;SDS011;6597;52.218;9.882;2023-02-01T15:11:29;0.10;;;0.10;;
13061;SDS011;6597;52.218;9.882;2023-02-01T15:13:56;1.33;;;0.47;;
13061;SDS011;6597;52.218;9.882;2023-02-01T15:16:25;0.67;;;0.53;;
13061;SDS011;6597;52.218;9.882;2023-02-01T15:19:06;0.40;;;0.40;;
13061;SDS011;6597;52.218;9.882;2023-02-01T15:21:43;0.93;;;0.30;;
13061;SDS011;6597;52.218;9.882;2023-02-01T15:24:11;0.93;;;0.10;;
13061;SDS011;6597;52.218;9.882;2023-02-01T15:26:39;1.40;;;0.50;;
13061;SDS011;6597;52.218;9.882;2023-02-01T15:29:09;0.30;;;0.30;;
13061;SDS011;6597;52.218;9.882;2023-02-01T15:31:37;0.67;;;0.60;;
13061;SDS011;6597;52.218;9.882;2023-02-01T15:34:07;0.73;;;0.50;;
13061;SDS011;6597;52.218;9.882;2023-02-01T15:36:33;0.50;;;0.40;;
13061;SDS011;6597;52.218;9.882;2023-02-01T15:39:13;3.53;;;0.80;;
13061;SDS011;6597;52.218;9.882;2023-02-01T15:41:49;3.53;;;0.60;;
13061;SDS011;6597;52.218;9.882;2023-02-01T15:44:18;1.70;;;0.80;;
13061;SDS011;6597;52.218;9.882;2023-02-01T15:46:48;7.13;;;0.63;;
13061;SDS011;6597;52.218;9.882;2023-02-01T15:49:18;0.87;;;0.50;;